Ruddington, United Kingdom
Current Conditions -  °F | °C
As of 5:20 AM on Thursday 27 Nov 2014 (Local Time) from EGNX Reporting Station
Light Rain Light Rain  
Wind Chill: 45°   Ceiling: Unl
Heat Index: 45°   Visibility: 0.18mi
Dew Point: 45°   Wind: 3mph
Humidity: 100%   Direction: 60°ENE
Pressure: 29.65"   Gusts: NA
Location:  52.89°N, 1.15°W
Report Text: EGNX 270520Z 06003KT 0300 R27/0900 -RA FG VV/// 07/07 Q1004
Loading
Personal Weather Stations






























Interactive Weather Map New forecast layout! Learn more

10-Day Weather Forecast

Advertisements
Track Severe Weather on mobile